createdAt,value
2022-10-19T00:01:19.129Z,103197.63
2022-10-19T00:06:18.783Z,103197.63
2022-10-19T00:08:46.530Z,103203.63
2022-10-19T00:11:12.944Z,103197.63
2022-10-19T00:13:40.149Z,103202.72
2022-10-19T00:16:15.057Z,103196.88
2022-10-19T00:18:45.918Z,103202.75
2022-10-19T00:21:15.517Z,103194.09
2022-10-19T00:23:42.590Z,103187.25
2022-10-19T00:26:09.708Z,103188.97
2022-10-19T00:28:36.850Z,103190.38
2022-10-19T00:31:05.615Z,103195.44
2022-10-19T00:33:32.337Z,103191.13
2022-10-19T00:35:58.662Z,103187.72
2022-10-19T00:38:25.215Z,103190.13
2022-10-19T00:40:51.573Z,103195.81
2022-10-19T00:43:23.487Z,103189.81
2022-10-19T00:45:50.536Z,103195.84
2022-10-19T00:48:29.721Z,103187.50
2022-10-19T00:50:58.397Z,103194.13
2022-10-19T00:53:27.330Z,103186.38
2022-10-19T00:55:54.703Z,103189.47
2022-10-19T00:58:21.486Z,103189.22
2022-10-19T01:00:48.103Z,103190.00
2022-10-19T01:03:14.847Z,103194.22
2022-10-19T01:05:41.381Z,103190.03
2022-10-19T01:08:09.504Z,103181.53
2022-10-19T01:10:57.128Z,103185.66
2022-10-19T01:13:47.376Z,103190.66
2022-10-19T01:16:46.497Z,103177.59
2022-10-19T01:19:46.909Z,103172.47
2022-10-19T01:22:23.685Z,103174.16
2022-10-19T01:25:08.757Z,103163.88
2022-10-19T01:27:50.341Z,103168.16
2022-10-19T01:30:28.643Z,103168.19
2022-10-19T01:33:15.657Z,103171.50
2022-10-19T01:36:22.779Z,103162.22
2022-10-19T01:39:02.731Z,103160.50
2022-10-19T01:41:39.541Z,103151.91
2022-10-19T01:44:13.169Z,103156.91
2022-10-19T01:46:43.976Z,103156.78
2022-10-19T01:49:33.555Z,103150.78
2022-10-19T01:52:04.095Z,103153.25
2022-10-19T01:54:38.433Z,103156.66
2022-10-19T01:57:07.494Z,103155.78
2022-10-19T01:59:35.207Z,103163.97
2022-10-19T02:02:04.125Z,103167.34
2022-10-19T02:04:32.074Z,103164.63
2022-10-19T02:06:59.175Z,103166.19
2022-10-19T02:09:25.888Z,103162.84
2022-10-19T02:11:57.328Z,103165.44
2022-10-19T02:14:32.560Z,103170.34
2022-10-19T02:17:25.323Z,103166.16
2022-10-19T02:19:53.733Z,103153.22
2022-10-19T02:22:21.467Z,103158.28
2022-10-19T02:24:47.966Z,103164.00
2022-10-19T02:27:14.411Z,103165.44
2022-10-19T02:29:41.295Z,103160.91
2022-10-19T02:32:08.760Z,103163.44
2022-10-19T02:34:36.277Z,103156.63
2022-10-19T02:37:02.885Z,103156.47
2022-10-19T02:39:29.576Z,103152.16
2022-10-19T02:42:05.659Z,103160.47
2022-10-19T02:44:44.051Z,103148.72
2022-10-19T02:47:15.724Z,103148.03
2022-10-19T02:49:47.277Z,103146.25
2022-10-19T02:52:14.996Z,103142.94
2022-10-19T02:54:43.944Z,103135.41
2022-10-19T02:57:28.606Z,103146.44
2022-10-19T02:59:55.255Z,103138.81
2022-10-19T03:02:21.660Z,103139.63
2022-10-19T03:07:21.337Z,103137.69
2022-10-19T03:09:48.290Z,103138.34
2022-10-19T03:12:15.074Z,103134.97
2022-10-19T03:14:41.706Z,103130.88
2022-10-19T03:17:08.288Z,103130.88
2022-10-19T03:19:35.822Z,103130.69
2022-10-19T03:22:02.367Z,103127.13
2022-10-19T03:24:30.108Z,103127.84
2022-10-19T03:26:56.971Z,103118.41
2022-10-19T03:29:23.580Z,103122.63
2022-10-19T03:31:50.247Z,103117.63
2022-10-19T03:34:16.689Z,103118.41
2022-10-19T03:36:43.086Z,103122.38
2022-10-19T03:39:14.611Z,103118.84
2022-10-19T03:41:42.101Z,103122.28
2022-10-19T03:44:10.545Z,103125.53
2022-10-19T03:46:37.543Z,103123.69
2022-10-19T03:49:05.168Z,103125.16
2022-10-19T03:51:32.623Z,103121.50
2022-10-19T03:54:01.646Z,103114.66
2022-10-19T03:56:29.671Z,103112.13
2022-10-19T03:58:57.202Z,103113.72
2022-10-19T04:01:32.960Z,103114.59
2022-10-19T04:04:01.947Z,103117.25
2022-10-19T04:06:31.032Z,103121.31
2022-10-19T04:08:59.013Z,103120.31
2022-10-19T04:11:28.498Z,103122.97
2022-10-19T04:13:57.174Z,103115.31
2022-10-19T04:16:25.533Z,103119.63
2022-10-19T04:18:52.444Z,103110.09
2022-10-19T04:21:36.729Z,103122.78
2022-10-19T04:24:04.831Z,103119.63
2022-10-19T04:26:31.565Z,103120.47
2022-10-19T04:28:59.034Z,103114.59
2022-10-19T04:31:26.304Z,103119.66
2022-10-19T04:33:52.693Z,103132.13
2022-10-19T04:36:19.494Z,103122.69
2022-10-19T04:38:48.815Z,103114.06
2022-10-19T04:41:17.928Z,103113.16
2022-10-19T04:43:47.777Z,103118.78
2022-10-19T04:46:18.033Z,103114.31
2022-10-19T04:48:45.769Z,103126.00
2022-10-19T04:51:12.700Z,103121.91
2022-10-19T04:53:40.463Z,103126.09
2022-10-19T04:56:09.287Z,103126.78
2022-10-19T04:58:35.958Z,103131.81
2022-10-19T05:01:11.392Z,103122.53
2022-10-19T05:03:38.284Z,103125.75
2022-10-19T05:06:05.334Z,103131.75
2022-10-19T05:08:32.705Z,103125.75
2022-10-19T05:11:11.738Z,103122.25
2022-10-19T05:13:38.370Z,103124.09
2022-10-19T05:16:07.651Z,103119.13
2022-10-19T05:18:34.931Z,103118.09
2022-10-19T05:21:05.791Z,103122.38
2022-10-19T05:26:05.309Z,103116.25
2022-10-19T05:28:33.036Z,103113.84
2022-10-19T05:31:27.359Z,103105.19
2022-10-19T05:33:53.954Z,103098.34
2022-10-19T05:36:35.415Z,103097.69
2022-10-19T05:39:19.841Z,103100.03
2022-10-19T05:41:47.562Z,103109.31
2022-10-19T05:44:20.054Z,103105.78
2022-10-19T05:46:47.269Z,103115.81
2022-10-19T05:49:15.053Z,103116.44
2022-10-19T05:51:41.856Z,103107.97
2022-10-19T05:54:08.346Z,103103.72
2022-10-19T05:56:34.676Z,103101.31
2022-10-19T05:59:05.165Z,103099.75
2022-10-19T06:01:32.078Z,103104.00
2022-10-19T06:03:59.934Z,103110.81
2022-10-19T06:06:27.852Z,103108.22
2022-10-19T06:08:55.944Z,103099.00
2022-10-19T06:11:29.701Z,103106.50
2022-10-19T06:13:58.021Z,103099.03
2022-10-19T06:16:25.996Z,103088.91
2022-10-19T06:18:53.840Z,103094.06
2022-10-19T06:21:22.525Z,103099.19
2022-10-19T06:23:57.998Z,103103.59
2022-10-19T06:26:25.728Z,103104.47
2022-10-19T06:28:56.166Z,103107.06
2022-10-19T06:31:22.518Z,103106.25
2022-10-19T06:33:49.805Z,103116.38
2022-10-19T06:36:27.044Z,103117.25
2022-10-19T06:38:53.570Z,103119.09
2022-10-19T06:41:20.721Z,103109.94
2022-10-19T06:43:52.005Z,103113.56
2022-10-19T06:46:20.547Z,103104.63
2022-10-19T06:49:00.545Z,103109.03
2022-10-19T06:51:29.330Z,103107.53
2022-10-19T06:53:57.122Z,103102.69
2022-10-19T06:56:25.382Z,103087.72
2022-10-19T06:58:52.552Z,103098.22
2022-10-19T07:01:19.005Z,103088.38
2022-10-19T07:03:45.529Z,103089.56
2022-10-19T07:06:13.254Z,103091.50
2022-10-19T07:08:41.699Z,103096.72
2022-10-19T07:11:11.020Z,103088.34
2022-10-19T07:13:37.979Z,103085.25
2022-10-19T07:16:14.518Z,103091.53
2022-10-19T07:18:44.582Z,103090.13
2022-10-19T07:21:14.220Z,103089.47
2022-10-19T07:23:42.079Z,103085.63
2022-10-19T07:26:15.660Z,103092.63
2022-10-19T07:28:44.202Z,103090.50
2022-10-19T07:31:13.489Z,103088.38
2022-10-19T07:33:40.059Z,103090.56
2022-10-19T07:36:09.605Z,103091.00
2022-10-19T07:38:36.876Z,103091.41
2022-10-19T07:41:04.991Z,103098.53
2022-10-19T07:43:31.461Z,103089.47
2022-10-19T07:45:59.767Z,103096.50
2022-10-19T07:48:26.468Z,103095.19
2022-10-19T07:50:53.005Z,103096.38
2022-10-19T07:53:19.383Z,103100.16
2022-10-19T07:55:45.830Z,103096.28
2022-10-19T07:58:12.265Z,103094.06
2022-10-19T08:03:43.768Z,103096.44
2022-10-19T08:05:51.196Z,103086.59
2022-10-19T08:08:17.561Z,103085.97
2022-10-19T08:10:43.923Z,103099.06
2022-10-19T08:13:10.283Z,103095.03
2022-10-19T08:15:40.077Z,103089.41
2022-10-19T08:18:06.502Z,103085.38
2022-10-19T08:20:33.067Z,103082.16
2022-10-19T08:22:59.407Z,103086.66
2022-10-19T08:25:25.838Z,103086.91
2022-10-19T08:27:52.569Z,103086.31
2022-10-19T08:30:19.267Z,103073.84
2022-10-19T08:32:45.782Z,103088.56
2022-10-19T08:35:12.115Z,103077.69
2022-10-19T08:37:45.302Z,103071.91
2022-10-19T08:40:25.369Z,103075.56
2022-10-19T08:43:10.093Z,103069.81
2022-10-19T08:45:43.019Z,103060.63
2022-10-19T08:48:25.241Z,103062.47
2022-10-19T08:50:52.606Z,103052.41
2022-10-19T08:53:33.505Z,103058.53
2022-10-19T08:56:06.107Z,103049.28
2022-10-19T08:59:01.654Z,103053.63
2022-10-19T09:01:40.623Z,103043.47
2022-10-19T09:04:14.852Z,103051.28
2022-10-19T09:07:19.726Z,103041.13
2022-10-19T09:09:51.450Z,103035.19
2022-10-19T09:12:22.254Z,103031.00
2022-10-19T09:14:59.098Z,103019.94
2022-10-19T09:17:34.009Z,103024.28
2022-10-19T09:20:15.848Z,103021.75
2022-10-19T09:22:43.817Z,103020.06
2022-10-19T09:25:23.125Z,103026.94
2022-10-19T09:27:58.120Z,103031.22
2022-10-19T09:30:24.601Z,103029.53
2022-10-19T09:32:59.829Z,103021.88
2022-10-19T09:35:37.238Z,103021.00
2022-10-19T09:38:06.681Z,103017.59
2022-10-19T09:40:34.990Z,103008.19
2022-10-19T09:43:19.715Z,103005.63
2022-10-19T09:45:54.814Z,102997.97
2022-10-19T09:48:38.014Z,103003.94
2022-10-19T09:51:10.980Z,103003.06
2022-10-19T09:53:37.817Z,102993.63
2022-10-19T09:56:07.560Z,102984.19
2022-10-19T09:58:35.055Z,102991.91
2022-10-19T10:01:02.910Z,102991.91
2022-10-19T10:03:43.497Z,102997.06
2022-10-19T10:06:15.201Z,103001.31
2022-10-19T10:08:57.802Z,102989.28
2022-10-19T10:11:28.553Z,102984.97
2022-10-19T10:13:56.233Z,102985.81
2022-10-19T10:16:24.989Z,102990.06
2022-10-19T10:18:56.041Z,102979.72
2022-10-19T10:21:26.294Z,102977.97
2022-10-19T10:24:02.950Z,102978.81
2022-10-19T10:26:29.620Z,102980.56
2022-10-19T10:28:59.201Z,102985.69
2022-10-19T10:31:29.988Z,102983.94
2022-10-19T10:34:10.779Z,102977.97
2022-10-19T10:36:53.755Z,102972.88
2022-10-19T10:39:20.438Z,102971.09
2022-10-19T10:41:49.035Z,102965.91
2022-10-19T10:44:24.780Z,102961.56
2022-10-19T10:46:58.282Z,102964.09
2022-10-19T10:49:28.121Z,102954.59
2022-10-19T10:51:57.636Z,102956.22
2022-10-19T10:54:27.625Z,102956.16
2022-10-19T10:57:16.728Z,102951.88
2022-10-19T10:59:55.517Z,102938.13
2022-10-19T11:02:33.638Z,102940.59
2022-10-19T11:05:29.203Z,102928.53
2022-10-19T11:08:04.764Z,102923.25
2022-10-19T11:10:36.678Z,102920.66
2022-10-19T11:13:33.212Z,102915.50
2022-10-19T11:16:06.435Z,102917.19
2022-10-19T11:18:37.837Z,102910.25
2022-10-19T11:21:15.708Z,102906.78
2022-10-19T11:24:03.026Z,102909.13
2022-10-19T11:27:07.107Z,102893.47
2022-10-19T11:30:04.258Z,102884.59
2022-10-19T11:32:45.952Z,102880.91
2022-10-19T11:35:12.417Z,102869.72
2022-10-19T11:38:20.155Z,102870.22
2022-10-19T11:41:06.135Z,102869.28
2022-10-19T11:44:09.178Z,102864.06
2022-10-19T11:46:52.462Z,102854.47
2022-10-19T11:49:37.544Z,102849.06
2022-10-19T11:52:22.731Z,102845.44
2022-10-19T11:55:04.301Z,102840.00
2022-10-19T11:57:48.284Z,102826.03
2022-10-19T12:00:37.715Z,102834.63
2022-10-19T12:03:24.859Z,102823.50
2022-10-19T12:06:31.312Z,102810.63
2022-10-19T12:09:13.824Z,102812.06
2022-10-19T12:11:58.751Z,102810.13
2022-10-19T12:14:30.163Z,102810.66
2022-10-19T12:17:02.474Z,102803.59
2022-10-19T12:19:40.980Z,102792.38
2022-10-19T12:22:25.081Z,102791.38
2022-10-19T12:24:55.376Z,102788.75
2022-10-19T12:27:32.702Z,102780.00
2022-10-19T12:30:22.718Z,102777.06
2022-10-19T12:33:15.677Z,102773.41
2022-10-19T12:36:06.489Z,102771.00
2022-10-19T12:39:00.013Z,102759.84
2022-10-19T12:41:53.080Z,102759.97
2022-10-19T12:44:33.280Z,102758.03
2022-10-19T12:47:09.436Z,102752.03
2022-10-19T12:49:43.010Z,102739.84
2022-10-19T12:52:09.993Z,102733.00
2022-10-19T12:54:39.598Z,102728.72
2022-10-19T12:57:23.869Z,102727.88
2022-10-19T13:00:03.621Z,102714.56
2022-10-19T13:05:06.124Z,102697.16
2022-10-19T13:07:35.492Z,102699.75
2022-10-19T13:10:05.963Z,102696.94
2022-10-19T13:12:44.255Z,102694.38
2022-10-19T13:15:35.249Z,102689.16
2022-10-19T13:18:05.035Z,102680.25
2022-10-19T13:20:31.645Z,102672.53
2022-10-19T13:23:00.762Z,102670.94
2022-10-19T13:25:31.770Z,102661.53
2022-10-19T13:28:07.660Z,102657.53
2022-10-19T13:30:39.746Z,102663.53
2022-10-19T13:33:27.353Z,102655.66
2022-10-19T13:36:00.049Z,102658.13
2022-10-19T13:38:28.742Z,102655.50
2022-10-19T13:40:55.102Z,102653.50
2022-10-19T13:43:24.964Z,102649.91
2022-10-19T13:46:05.329Z,102652.69
2022-10-19T13:48:34.686Z,102637.06
2022-10-19T13:51:27.453Z,102636.00
2022-10-19T13:54:08.966Z,102634.25
2022-10-19T13:56:50.751Z,102637.03
2022-10-19T13:59:31.421Z,102631.19
2022-10-19T14:02:43.743Z,102642.56
2022-10-19T14:05:21.921Z,102644.06
2022-10-19T14:08:00.876Z,102639.56
2022-10-19T14:10:32.813Z,102642.81
2022-10-19T14:13:01.671Z,102645.94
2022-10-19T14:15:31.607Z,102650.69
2022-10-19T14:18:02.389Z,102658.59
2022-10-19T14:20:34.940Z,102649.22
2022-10-19T14:23:24.376Z,102650.31
2022-10-19T14:26:19.456Z,102653.94
2022-10-19T14:28:52.514Z,102655.84
2022-10-19T14:31:23.993Z,102655.13
2022-10-19T14:33:52.705Z,102656.13
2022-10-19T14:36:27.659Z,102646.59
2022-10-19T14:38:55.932Z,102641.47
2022-10-19T14:41:28.024Z,102640.75
2022-10-19T14:43:56.618Z,102645.19
2022-10-19T14:46:32.004Z,102646.19
2022-10-19T14:49:05.887Z,102634.28
2022-10-19T14:51:42.225Z,102634.41
2022-10-19T14:54:28.901Z,102618.31
2022-10-19T14:56:57.639Z,102622.72
2022-10-19T14:59:36.088Z,102622.03
2022-10-19T15:02:13.760Z,102616.03
2022-10-19T15:04:40.138Z,102607.50
2022-10-19T15:07:18.511Z,102605.06
2022-10-19T15:09:51.495Z,102597.34
2022-10-19T15:12:21.270Z,102590.63
2022-10-19T15:14:48.556Z,102594.94
2022-10-19T15:17:22.494Z,102592.25
2022-10-19T15:19:48.909Z,102583.78
2022-10-19T15:22:19.176Z,102581.28
2022-10-19T15:24:55.520Z,102577.19
2022-10-19T15:27:28.838Z,102579.88
2022-10-19T15:30:17.992Z,102567.00
2022-10-19T15:32:53.864Z,102562.81
2022-10-19T15:35:26.201Z,102563.78
2022-10-19T15:38:02.028Z,102557.00
2022-10-19T15:40:37.791Z,102557.16
2022-10-19T15:43:34.791Z,102556.50
2022-10-19T15:46:13.524Z,102559.28
2022-10-19T15:48:50.066Z,102560.22
2022-10-19T15:51:24.581Z,102556.03
2022-10-19T15:53:52.476Z,102551.03
2022-10-19T15:56:19.260Z,102546.81
2022-10-19T15:58:49.710Z,102542.66
2022-10-19T16:01:19.154Z,102535.88
2022-10-19T16:03:45.973Z,102532.59
2022-10-19T16:06:12.817Z,102528.44
2022-10-19T16:08:39.193Z,102532.81
2022-10-19T16:11:05.570Z,102525.22
2022-10-19T16:13:31.961Z,102518.44
2022-10-19T16:16:11.276Z,102518.53
2022-10-19T16:18:38.421Z,102516.06
2022-10-19T16:21:05.488Z,102517.84
2022-10-19T16:23:36.629Z,102510.22
2022-10-19T16:26:06.900Z,102506.91
2022-10-19T16:28:33.637Z,102501.84
2022-10-19T16:31:00.038Z,102510.47
2022-10-19T16:33:26.406Z,102511.41
2022-10-19T16:35:52.719Z,102518.31
2022-10-19T16:38:19.066Z,102512.41
2022-10-19T16:40:45.425Z,102513.31
2022-10-19T16:43:11.740Z,102513.38
2022-10-19T16:45:42.416Z,102510.03
2022-10-19T16:48:12.965Z,102507.50
2022-10-19T16:50:39.345Z,102504.97
2022-10-19T16:53:12.130Z,102501.59
2022-10-19T16:55:39.878Z,102495.63
2022-10-19T16:58:06.857Z,102493.13
2022-10-19T17:00:35.198Z,102482.88
2022-10-19T17:03:01.519Z,102477.81
2022-10-19T17:05:27.921Z,102484.69
2022-10-19T17:07:54.325Z,102481.28
2022-10-19T17:10:20.697Z,102483.00
2022-10-19T17:12:47.091Z,102476.19
2022-10-19T17:18:00.293Z,102475.44
2022-10-19T17:20:26.702Z,102476.34
2022-10-19T17:22:53.046Z,102467.78
2022-10-19T17:25:19.392Z,102474.66
2022-10-19T17:27:50.826Z,102478.13
2022-10-19T17:30:17.521Z,102476.44
2022-10-19T17:32:44.274Z,102475.59
2022-10-19T17:35:10.750Z,102472.19
2022-10-19T17:37:37.913Z,102467.94
2022-10-19T17:40:04.884Z,102465.41
2022-10-19T17:42:32.121Z,102462.84
2022-10-19T17:44:58.441Z,102466.25
2022-10-19T17:47:24.833Z,102466.28
2022-10-19T17:49:51.185Z,102465.44
2022-10-19T17:52:17.534Z,102461.22
2022-10-19T17:54:54.615Z,102462.94
2022-10-19T17:57:26.991Z,102458.66
2022-10-19T17:59:54.721Z,102461.22
2022-10-19T18:02:21.157Z,102457.81
2022-10-19T18:04:47.511Z,102466.34
2022-10-19T18:07:13.904Z,102462.97
2022-10-19T18:09:40.402Z,102465.53
2022-10-19T18:12:08.577Z,102470.69
2022-10-19T18:14:34.958Z,102473.22
2022-10-19T18:17:01.281Z,102472.41
2022-10-19T18:19:27.727Z,102474.94
2022-10-19T18:21:54.135Z,102474.13
2022-10-19T18:24:21.390Z,102476.69
2022-10-19T18:26:49.281Z,102470.72
2022-10-19T18:29:19.049Z,102463.91
2022-10-19T18:31:51.175Z,102468.19
2022-10-19T18:34:22.343Z,102466.50
2022-10-19T18:36:49.977Z,102457.97
2022-10-19T18:39:17.348Z,102452.84
2022-10-19T18:41:43.717Z,102452.84
2022-10-19T18:44:12.801Z,102445.19
2022-10-19T18:46:40.552Z,102444.34
2022-10-19T18:49:08.210Z,102432.38
2022-10-19T18:51:35.530Z,102424.72
2022-10-19T18:54:02.043Z,102434.94
2022-10-19T18:56:29.374Z,102435.78
2022-10-19T18:58:56.670Z,102430.69
2022-10-19T19:01:28.156Z,102426.44
2022-10-19T19:03:57.093Z,102426.47
2022-10-19T19:06:26.266Z,102433.28
2022-10-19T19:08:56.859Z,102421.34
2022-10-19T19:11:25.942Z,102424.75
2022-10-19T19:13:55.169Z,102422.19
2022-10-19T19:16:22.267Z,102417.09
2022-10-19T19:18:48.655Z,102404.31
2022-10-19T19:21:20.239Z,102406.03
2022-10-19T19:23:48.058Z,102404.31
2022-10-19T19:26:15.229Z,102406.88
2022-10-19T19:28:46.381Z,102397.50
2022-10-19T19:31:17.132Z,102377.03
2022-10-19T19:33:44.829Z,102375.31
2022-10-19T19:36:13.599Z,102371.06
2022-10-19T19:38:40.465Z,102362.56
2022-10-19T19:41:08.746Z,102360.00
2022-10-19T19:43:37.565Z,102350.63
2022-10-19T19:46:09.377Z,102337.00
2022-10-19T19:48:36.704Z,102341.25
2022-10-19T19:51:03.475Z,102346.38
2022-10-19T19:53:29.824Z,102331.03
2022-10-19T19:55:56.313Z,102320.78
2022-10-19T19:58:22.693Z,102319.97
2022-10-19T20:00:49.052Z,102324.22
2022-10-19T20:03:15.809Z,102320.81
2022-10-19T20:05:42.434Z,102323.38
2022-10-19T20:08:09.045Z,102315.72
2022-10-19T20:10:40.540Z,102313.13
2022-10-19T20:13:07.198Z,102310.59
2022-10-19T20:15:33.649Z,102307.19
2022-10-19T20:18:00.030Z,102296.97
2022-10-19T20:20:26.433Z,102291.84
2022-10-19T20:22:52.801Z,102288.44
2022-10-19T20:25:19.238Z,102296.13
2022-10-19T20:27:45.634Z,102291.00
2022-10-19T20:30:11.988Z,102294.44
2022-10-19T20:32:38.619Z,102291.88
2022-10-19T20:35:06.008Z,102285.06
2022-10-19T20:37:32.367Z,102279.09
2022-10-19T20:39:59.412Z,102272.28
2022-10-19T20:42:26.005Z,102264.63
2022-10-19T20:44:54.599Z,102273.13
2022-10-19T20:47:21.026Z,102268.88
2022-10-19T20:49:47.745Z,102256.97
2022-10-19T20:52:14.134Z,102253.53
2022-10-19T20:54:40.468Z,102250.16
2022-10-19T20:57:06.877Z,102250.97
2022-10-19T20:59:33.342Z,102251.81
2022-10-19T21:01:59.709Z,102246.72
2022-10-19T21:04:26.724Z,102245.00
2022-10-19T21:06:53.310Z,102250.13
2022-10-19T21:09:22.515Z,102243.31
2022-10-19T21:11:50.885Z,102242.47
2022-10-19T21:14:23.686Z,102246.72
2022-10-19T21:16:53.424Z,102242.50
2022-10-19T21:19:22.366Z,102250.13
2022-10-19T21:21:51.749Z,102247.59
2022-10-19T21:24:24.414Z,102250.97
2022-10-19T21:29:19.214Z,102245.84
2022-10-19T21:31:49.083Z,102245.88
2022-10-19T21:34:22.313Z,102242.44
2022-10-19T21:36:49.044Z,102241.63
2022-10-19T21:39:15.861Z,102234.78
2022-10-19T21:41:42.195Z,102228.00
2022-10-19T21:44:09.341Z,102226.28
2022-10-19T21:46:35.697Z,102230.53
2022-10-19T21:49:02.645Z,102227.09
2022-10-19T21:51:48.463Z,102224.53
2022-10-19T21:54:20.327Z,102218.53
2022-10-19T21:56:47.492Z,102221.97
2022-10-19T21:59:14.806Z,102213.44
2022-10-19T22:01:41.877Z,102219.41
2022-10-19T22:04:13.685Z,102206.63
2022-10-19T22:06:40.553Z,102204.09
2022-10-19T22:09:09.282Z,102198.13
2022-10-19T22:11:36.189Z,102202.38
2022-10-19T22:14:03.980Z,102192.19
2022-10-19T22:16:31.745Z,102197.25
2022-10-19T22:18:58.697Z,102193.84
2022-10-19T22:21:28.129Z,102198.13
2022-10-19T22:24:14.511Z,102194.69
2022-10-19T22:26:44.423Z,102182.78
2022-10-19T22:29:11.366Z,102186.19
2022-10-19T22:31:38.594Z,102171.72
2022-10-19T22:34:07.869Z,102174.28
2022-10-19T22:36:34.707Z,102168.31
2022-10-19T22:39:01.338Z,102155.53
2022-10-19T22:42:04.515Z,102159.81
2022-10-19T22:44:31.810Z,102158.09
2022-10-19T22:46:58.791Z,102150.44
2022-10-19T22:49:25.485Z,102145.34
2022-10-19T22:51:51.874Z,102146.19
2022-10-19T22:54:18.202Z,102136.81
2022-10-19T22:56:44.818Z,102134.28
2022-10-19T22:59:17.842Z,102119.81
2022-10-19T23:01:44.273Z,102119.81
2022-10-19T23:04:10.669Z,102124.91
2022-10-19T23:06:37.089Z,102129.19
2022-10-19T23:09:03.918Z,102116.44
2022-10-19T23:11:30.352Z,102112.16
2022-10-19T23:13:56.715Z,102118.09
2022-10-19T23:16:23.122Z,102113.88
2022-10-19T23:18:49.789Z,102118.09
2022-10-19T23:21:16.242Z,102109.63
2022-10-19T23:23:42.687Z,102104.53
2022-10-19T23:26:19.987Z,102112.19
2022-10-19T23:28:47.924Z,102094.31
2022-10-19T23:31:20.352Z,102094.28
2022-10-19T23:33:47.031Z,102092.63
2022-10-19T23:36:17.054Z,102084.09
2022-10-19T23:38:45.042Z,102076.44
2022-10-19T23:41:12.536Z,102078.16
2022-10-19T23:43:39.766Z,102070.50
2022-10-19T23:46:06.540Z,102073.91
2022-10-19T23:48:34.359Z,102074.75
2022-10-19T23:51:06.803Z,102076.44
2022-10-19T23:53:39.883Z,102068.78
2022-10-19T23:56:27.979Z,102058.59
2022-10-19T23:58:55.586Z,102060.28
